createdAt,value
2023-01-28T00:01:48.178Z,-0.30
2023-01-28T00:06:50.567Z,-0.30
2023-01-28T00:11:52.971Z,-0.30
2023-01-28T00:16:55.303Z,-0.30
2023-01-28T00:21:57.617Z,-0.30
2023-01-28T00:26:59.960Z,-0.30
2023-01-28T00:32:02.372Z,-0.30
2023-01-28T00:37:05.333Z,-0.30
2023-01-28T00:42:07.652Z,-0.30
2023-01-28T00:47:10.105Z,-0.40
2023-01-28T00:52:13.059Z,-0.30
2023-01-28T00:57:15.419Z,-0.40
2023-01-28T01:02:17.947Z,-0.30
2023-01-28T01:07:23.383Z,-0.30
2023-01-28T01:12:25.861Z,-0.30
2023-01-28T01:17:31.730Z,-0.40
2023-01-28T01:22:35.556Z,-0.40
2023-01-28T01:27:38.507Z,-0.40
2023-01-28T01:32:41.142Z,-0.30
2023-01-28T01:37:44.989Z,-0.30
2023-01-28T01:42:47.711Z,-0.30
2023-01-28T01:48:07.480Z,0.10
2023-01-28T01:53:21.868Z,-0.30
2023-01-28T01:58:29.258Z,-0.40
2023-01-28T02:03:55.291Z,-0.40
2023-01-28T02:08:57.957Z,-0.40
2023-01-28T02:14:04.129Z,-0.40
2023-01-28T02:19:08.430Z,-0.40
2023-01-28T02:24:49.148Z,-0.40
2023-01-28T02:30:19.731Z,-0.50
2023-01-28T02:35:31.511Z,-0.50
2023-01-28T02:41:00.766Z,-0.40
2023-01-28T02:46:38.501Z,-0.40
2023-01-28T02:52:08.279Z,-0.50
2023-01-28T02:57:34.556Z,-0.50
2023-01-28T03:02:47.266Z,-0.50
2023-01-28T03:07:51.193Z,-0.50
2023-01-28T03:13:15.035Z,-0.50
2023-01-28T03:18:41.061Z,-0.50
2023-01-28T03:24:19.580Z,-0.50
2023-01-28T03:29:44.929Z,-0.50
2023-01-28T03:35:09.397Z,-0.50
2023-01-28T03:40:14.577Z,-0.60
2023-01-28T03:45:19.312Z,-0.60
2023-01-28T03:50:22.391Z,-0.60
2023-01-28T03:55:32.389Z,-0.60
2023-01-28T04:00:38.072Z,-0.60
2023-01-28T04:05:40.795Z,-0.60
2023-01-28T04:10:44.058Z,-0.60
2023-01-28T04:16:05.658Z,-0.60
2023-01-28T04:21:16.185Z,-0.70
2023-01-28T04:26:19.239Z,-0.70
2023-01-28T04:31:21.790Z,-0.70
2023-01-28T04:36:48.485Z,-0.70
2023-01-28T04:42:00.238Z,-0.70
2023-01-28T04:47:20.041Z,-0.70
2023-01-28T04:52:37.291Z,-0.70
2023-01-28T04:58:02.919Z,-0.70
2023-01-28T05:03:06.730Z,-0.70
2023-01-28T05:08:09.353Z,-0.70
2023-01-28T05:13:11.873Z,-0.70
2023-01-28T05:18:14.435Z,-0.80
2023-01-28T05:23:22.541Z,-0.80
2023-01-28T05:28:27.136Z,-0.80
2023-01-28T05:33:29.843Z,-0.80
2023-01-28T05:38:32.817Z,-0.20
2023-01-28T05:43:35.267Z,-0.80
2023-01-28T05:48:55.856Z,-0.80
2023-01-28T05:54:29.090Z,-0.80
2023-01-28T05:59:32.784Z,-0.80
2023-01-28T06:04:35.236Z,-0.80
2023-01-28T06:09:37.735Z,-0.80
2023-01-28T06:14:40.627Z,-0.80
2023-01-28T06:19:56.827Z,-0.80
2023-01-28T06:24:59.277Z,-0.80
2023-01-28T06:30:02.077Z,-0.80
2023-01-28T06:35:04.810Z,-0.70
2023-01-28T06:40:07.949Z,-0.80
2023-01-28T06:45:10.710Z,-0.80
2023-01-28T06:50:13.558Z,-0.80
2023-01-28T06:55:16.470Z,-0.80
2023-01-28T07:00:19.383Z,0.00
2023-01-28T07:05:21.697Z,-0.80
2023-01-28T07:10:24.109Z,-0.70
2023-01-28T07:15:26.600Z,-0.70
2023-01-28T07:20:29.085Z,-0.60
2023-01-28T07:25:31.771Z,-0.60
2023-01-28T07:30:34.263Z,-0.60
2023-01-28T07:35:36.928Z,-0.60
2023-01-28T07:40:39.701Z,-0.60
2023-01-28T07:45:42.484Z,-0.50
2023-01-28T07:50:45.533Z,-0.50
2023-01-28T07:55:47.922Z,-0.40
2023-01-28T08:00:50.262Z,-0.40
2023-01-28T08:05:55.535Z,-0.30
2023-01-28T08:10:57.902Z,-0.10
2023-01-28T08:16:00.314Z,-0.20
2023-01-28T08:21:02.769Z,-0.10
2023-01-28T08:26:05.281Z,0.00
2023-01-28T08:31:07.784Z,0.00
2023-01-28T08:36:10.431Z,0.10
2023-01-28T08:41:12.796Z,0.00
2023-01-28T08:46:15.948Z,0.20
2023-01-28T08:51:18.433Z,0.20
2023-01-28T08:56:20.801Z,0.20
2023-01-28T09:01:23.351Z,0.30
2023-01-28T09:06:25.759Z,0.40
2023-01-28T09:11:29.575Z,0.30
2023-01-28T09:16:31.996Z,0.20
2023-01-28T09:21:37.013Z,0.30
2023-01-28T09:26:39.477Z,0.40
2023-01-28T09:31:42.864Z,0.60
2023-01-28T09:36:45.221Z,0.50
2023-01-28T09:42:09.927Z,0.50
2023-01-28T09:47:41.322Z,0.70
2023-01-28T09:52:45.305Z,0.70
2023-01-28T09:57:53.491Z,0.60
2023-01-28T10:03:09.282Z,0.70
2023-01-28T10:08:11.602Z,0.70
2023-01-28T10:13:21.988Z,0.60
2023-01-28T10:18:37.908Z,0.60
2023-01-28T10:23:47.946Z,0.50
2023-01-28T10:28:56.381Z,0.60
2023-01-28T10:33:59.089Z,1.00
2023-01-28T10:39:01.628Z,0.60
2023-01-28T10:44:04.171Z,0.60
2023-01-28T10:49:13.709Z,0.70
2023-01-28T10:54:28.095Z,0.50
2023-01-28T10:59:31.477Z,0.40
2023-01-28T11:04:35.738Z,0.50
2023-01-28T11:09:38.662Z,0.50
2023-01-28T11:14:52.884Z,0.50
2023-01-28T11:20:01.453Z,0.50
2023-01-28T11:25:25.284Z,0.40
2023-01-28T11:30:32.591Z,0.40
2023-01-28T11:35:34.999Z,0.50
2023-01-28T11:40:37.329Z,0.60
2023-01-28T11:45:48.625Z,0.40
2023-01-28T11:51:10.090Z,0.40
2023-01-28T11:56:24.024Z,0.70
2023-01-28T12:01:43.544Z,0.80
2023-01-28T12:06:45.998Z,0.60
2023-01-28T12:12:15.625Z,0.70
2023-01-28T12:17:33.092Z,0.60
2023-01-28T12:22:58.404Z,0.50
2023-01-28T12:28:17.713Z,0.60
2023-01-28T12:33:28.820Z,0.50
2023-01-28T12:39:05.180Z,0.50
2023-01-28T12:44:33.242Z,0.60
2023-01-28T12:49:42.640Z,0.50
2023-01-28T12:55:22.727Z,0.60
2023-01-28T13:00:34.420Z,0.60
2023-01-28T13:05:46.445Z,0.50
2023-01-28T13:10:49.822Z,0.30
2023-01-28T13:15:52.300Z,0.40
2023-01-28T13:20:55.828Z,0.30
2023-01-28T13:26:29.177Z,0.40
2023-01-28T13:31:39.397Z,0.40
2023-01-28T13:36:47.127Z,0.40
2023-01-28T13:41:55.316Z,0.30
2023-01-28T13:47:05.721Z,0.10
2023-01-28T13:52:11.441Z,0.10
2023-01-28T13:57:35.658Z,0.20
2023-01-28T14:03:12.865Z,0.20
2023-01-28T14:08:29.515Z,0.30
2023-01-28T14:13:41.259Z,0.30
2023-01-28T14:18:45.748Z,0.40
2023-01-28T14:23:53.693Z,0.40
2023-01-28T14:29:07.490Z,0.40
2023-01-28T14:34:32.371Z,0.40
2023-01-28T14:39:44.708Z,0.30
2023-01-28T14:44:50.728Z,0.30
2023-01-28T14:50:38.766Z,0.30
2023-01-28T14:56:03.295Z,0.30
2023-01-28T15:01:05.640Z,0.20
2023-01-28T15:06:16.665Z,0.10
2023-01-28T15:11:25.036Z,0.10
2023-01-28T15:16:30.293Z,0.00
2023-01-28T15:21:35.112Z,0.00
2023-01-28T15:26:38.927Z,0.10
2023-01-28T15:31:49.552Z,0.10
2023-01-28T15:36:52.211Z,0.10
2023-01-28T15:42:04.509Z,0.10
2023-01-28T15:47:20.989Z,0.10
2023-01-28T15:52:38.007Z,0.10
2023-01-28T15:57:40.448Z,0.20
2023-01-28T16:02:48.204Z,0.10
2023-01-28T16:07:50.753Z,0.10
2023-01-28T16:13:20.058Z,0.10
2023-01-28T16:18:51.765Z,0.00
2023-01-28T16:24:04.055Z,-0.10
2023-01-28T16:29:17.527Z,-0.10
2023-01-28T16:34:20.242Z,-0.10
2023-01-28T16:39:24.989Z,-0.10
2023-01-28T16:44:27.353Z,-0.10
2023-01-28T16:49:29.804Z,-0.10
2023-01-28T16:54:33.717Z,-0.30
2023-01-28T16:59:36.476Z,-0.20
2023-01-28T17:04:38.954Z,-0.20
2023-01-28T17:09:41.295Z,-0.30
2023-01-28T17:14:43.636Z,-0.30
2023-01-28T17:19:46.268Z,-0.20
2023-01-28T17:24:48.604Z,-0.20
2023-01-28T17:29:53.239Z,-0.20
2023-01-28T17:34:55.585Z,-0.30
2023-01-28T17:39:57.954Z,-0.30
2023-01-28T17:45:03.196Z,-0.30
2023-01-28T17:50:06.262Z,-0.30
2023-01-28T17:55:10.910Z,-0.30
2023-01-28T18:00:13.869Z,-0.30
2023-01-28T18:05:16.623Z,-0.30
2023-01-28T18:10:19.584Z,-0.30
2023-01-28T18:15:23.966Z,-0.30
2023-01-28T18:20:26.384Z,-0.30
2023-01-28T18:25:28.739Z,-0.30
2023-01-28T18:30:31.402Z,-0.40
2023-01-28T18:35:33.772Z,-0.40
2023-01-28T18:40:36.859Z,-0.40
2023-01-28T18:45:41.094Z,-0.40
2023-01-28T18:50:54.167Z,-0.40
2023-01-28T18:56:00.129Z,-0.40
2023-01-28T19:01:10.359Z,-0.40
2023-01-28T19:06:12.794Z,-0.40
2023-01-28T19:11:15.191Z,-0.40
2023-01-28T19:17:28.029Z,-0.40
2023-01-28T19:22:30.429Z,-0.50
2023-01-28T19:27:32.769Z,-0.40
2023-01-28T19:32:35.424Z,-0.50
2023-01-28T19:37:37.761Z,-0.50
2023-01-28T19:42:40.127Z,-0.50
2023-01-28T19:47:42.448Z,-0.40
2023-01-28T19:52:44.823Z,-0.40
2023-01-28T19:57:47.121Z,-0.40
2023-01-28T20:02:52.752Z,-0.40
2023-01-28T20:07:55.091Z,-0.40
2023-01-28T20:12:57.522Z,-0.40
2023-01-28T20:17:59.937Z,-0.40
2023-01-28T20:23:05.676Z,-0.40
2023-01-28T20:28:08.022Z,-0.40
2023-01-28T20:33:10.456Z,-0.40
2023-01-28T20:38:14.678Z,-0.40
2023-01-28T20:43:17.072Z,-0.40
2023-01-28T20:48:19.379Z,-0.40
2023-01-28T20:53:21.780Z,-0.30
2023-01-28T20:58:26.260Z,-0.40
2023-01-28T21:03:28.765Z,-0.40
2023-01-28T21:08:31.148Z,-0.30
2023-01-28T21:13:34.137Z,-0.30
2023-01-28T21:18:37.031Z,-0.30
2023-01-28T21:23:39.397Z,-0.30
2023-01-28T21:28:43.050Z,-0.20
2023-01-28T21:33:49.921Z,-0.20
2023-01-28T21:38:54.494Z,-0.10
2023-01-28T21:43:58.117Z,-0.10
2023-01-28T21:49:03.698Z,0.10
2023-01-28T21:54:12.266Z,-0.10
2023-01-28T21:59:28.065Z,-0.10
2023-01-28T22:04:32.775Z,-0.10
2023-01-28T22:09:35.544Z,-0.10
2023-01-28T22:14:39.401Z,-0.10
2023-01-28T22:19:47.883Z,0.10
2023-01-28T22:24:50.730Z,-0.10
2023-01-28T22:29:53.929Z,-0.10
2023-01-28T22:34:56.633Z,-0.10
2023-01-28T22:39:59.023Z,-0.10
2023-01-28T22:45:01.440Z,0.00
2023-01-28T22:50:04.082Z,-0.10
2023-01-28T22:55:06.884Z,-0.10
2023-01-28T23:00:12.256Z,0.00
2023-01-28T23:05:14.668Z,0.00
2023-01-28T23:10:17.666Z,-0.10
2023-01-28T23:15:40.611Z,0.00
2023-01-28T23:21:02.248Z,0.00
2023-01-28T23:26:06.922Z,0.00
2023-01-28T23:31:09.764Z,0.00
2023-01-28T23:36:12.844Z,-0.10
2023-01-28T23:41:15.315Z,-0.10
2023-01-28T23:46:19.428Z,-0.10
2023-01-28T23:51:25.053Z,-0.20
2023-01-28T23:56:27.610Z,-0.20
